createdAt,value
2018-06-27T00:01:34.137Z,6.97
2018-06-27T00:04:02.222Z,8.40
2018-06-27T00:06:30.231Z,9.28
2018-06-27T00:08:58.166Z,10.32
2018-06-27T00:11:27.125Z,11.33
2018-06-27T00:13:55.098Z,10.23
2018-06-27T00:16:23.165Z,11.70
2018-06-27T00:18:51.279Z,12.53
2018-06-27T00:21:19.262Z,12.68
2018-06-27T00:23:47.339Z,10.48
2018-06-27T00:26:15.330Z,11.90
2018-06-27T00:28:43.384Z,14.38
2018-06-27T00:31:11.755Z,7.53
2018-06-27T00:33:39.702Z,10.35
2018-06-27T00:36:07.757Z,7.45
2018-06-27T00:38:35.755Z,6.33
2018-06-27T00:41:03.937Z,9.55
2018-06-27T00:43:31.886Z,6.72
2018-06-27T00:46:00.230Z,8.98
2018-06-27T00:48:28.286Z,7.90
2018-06-27T00:50:56.336Z,6.72
2018-06-27T00:53:29.663Z,7.67
2018-06-27T00:55:57.689Z,7.47
2018-06-27T00:58:25.725Z,6.78
2018-06-27T01:00:53.915Z,8.83
2018-06-27T01:03:21.901Z,10.72
2018-06-27T01:05:49.906Z,6.90
2018-06-27T01:08:17.941Z,8.23
2018-06-27T01:10:46.050Z,6.50
2018-06-27T01:13:14.076Z,8.95
2018-06-27T01:15:42.016Z,6.42
2018-06-27T01:18:10.468Z,7.40
2018-06-27T01:20:38.527Z,6.08
2018-06-27T01:23:07.093Z,5.87
2018-06-27T01:25:35.059Z,6.53
2018-06-27T01:28:03.002Z,8.58
2018-06-27T01:30:31.303Z,6.83
2018-06-27T01:32:59.373Z,5.75
2018-06-27T01:35:27.445Z,4.70
2018-06-27T01:37:55.820Z,4.75
2018-06-27T01:40:25.489Z,5.85
2018-06-27T01:42:54.009Z,5.47
2018-06-27T01:45:22.499Z,3.83
2018-06-27T01:47:56.308Z,3.72
2018-06-27T01:50:24.990Z,3.87
2018-06-27T01:52:53.633Z,4.33
2018-06-27T01:55:23.508Z,3.08
2018-06-27T01:57:52.043Z,4.80
2018-06-27T02:00:22.155Z,3.25
2018-06-27T02:02:50.665Z,4.35
2018-06-27T02:05:19.154Z,5.10
2018-06-27T02:07:48.865Z,3.10
2018-06-27T02:10:20.057Z,4.03
2018-06-27T02:12:49.616Z,3.05
2018-06-27T02:15:17.872Z,2.42
2018-06-27T02:17:46.796Z,2.40
2018-06-27T02:20:15.438Z,2.55
2018-06-27T02:22:43.922Z,2.30
2018-06-27T02:25:12.033Z,3.10
2018-06-27T02:27:40.065Z,2.10
2018-06-27T02:30:08.159Z,4.03
2018-06-27T02:32:36.668Z,3.05
2018-06-27T02:35:05.030Z,2.00
2018-06-27T02:37:33.124Z,3.27
2018-06-27T02:40:01.360Z,3.65
2018-06-27T02:42:29.815Z,4.42
2018-06-27T02:44:58.102Z,2.12
2018-06-27T02:47:26.174Z,1.90
2018-06-27T02:49:54.543Z,2.10
2018-06-27T02:52:22.526Z,2.83
2018-06-27T02:54:50.530Z,2.35
2018-06-27T02:57:18.540Z,2.22
2018-06-27T02:59:46.765Z,2.67
2018-06-27T03:02:14.744Z,3.55
2018-06-27T03:04:42.782Z,2.47
2018-06-27T03:07:11.241Z,4.85
2018-06-27T03:09:39.664Z,3.05
2018-06-27T03:12:07.680Z,2.80
2018-06-27T03:14:35.721Z,3.45
2018-06-27T03:17:03.756Z,3.37
2018-06-27T03:19:31.807Z,4.25
2018-06-27T03:21:59.799Z,4.47
2018-06-27T03:24:28.116Z,4.80
2018-06-27T03:26:56.134Z,3.08
2018-06-27T03:29:24.194Z,3.67
2018-06-27T03:31:52.264Z,3.20
2018-06-27T03:34:20.275Z,3.00
2018-06-27T03:36:48.448Z,3.72
2018-06-27T03:39:16.480Z,4.80
2018-06-27T03:41:44.456Z,3.90
2018-06-27T03:44:12.903Z,3.67
2018-06-27T03:46:40.823Z,5.20
2018-06-27T03:49:08.861Z,3.90
2018-06-27T03:51:36.844Z,4.53
2018-06-27T03:54:05.289Z,3.98
2018-06-27T03:56:33.284Z,3.55
2018-06-27T03:59:01.297Z,4.08
2018-06-27T04:01:29.738Z,3.20
2018-06-27T04:03:58.633Z,3.80
2018-06-27T04:06:26.584Z,3.10
2018-06-27T04:08:54.588Z,4.00
2018-06-27T04:11:22.649Z,4.85
2018-06-27T04:13:50.620Z,4.00
2018-06-27T04:16:18.598Z,4.37
2018-06-27T04:18:46.597Z,3.58
2018-06-27T04:21:14.667Z,3.77
2018-06-27T04:23:42.703Z,3.17
2018-06-27T04:26:10.705Z,5.85
2018-06-27T04:28:39.466Z,5.92
2018-06-27T04:31:07.548Z,4.40
2018-06-27T04:33:35.548Z,4.62
2018-06-27T04:36:03.941Z,5.03
2018-06-27T04:38:32.054Z,5.55
2018-06-27T04:41:00.092Z,6.17
2018-06-27T04:43:28.019Z,4.75
2018-06-27T04:45:56.076Z,4.65
2018-06-27T04:48:24.125Z,4.08
2018-06-27T04:50:52.144Z,3.98
2018-06-27T04:53:20.204Z,9.03
2018-06-27T04:55:48.222Z,4.58
2018-06-27T04:58:16.226Z,5.25
2018-06-27T05:00:52.529Z,3.77
2018-06-27T05:03:21.841Z,4.42
2018-06-27T05:05:49.863Z,5.72
2018-06-27T05:08:18.484Z,4.78
2018-06-27T05:10:46.518Z,4.20
2018-06-27T05:13:14.567Z,5.70
2018-06-27T05:15:42.523Z,5.65
2018-06-27T05:18:10.580Z,4.70
2018-06-27T05:20:38.646Z,4.37
2018-06-27T05:23:06.754Z,4.97
2018-06-27T05:25:34.965Z,7.53
2018-06-27T05:28:02.995Z,6.55
2018-06-27T05:30:31.107Z,11.78
2018-06-27T05:32:59.001Z,5.22
2018-06-27T05:35:27.026Z,6.05
2018-06-27T05:37:55.156Z,6.22
2018-06-27T05:40:23.219Z,5.08
2018-06-27T05:42:51.492Z,3.83
2018-06-27T05:45:19.632Z,11.75
2018-06-27T05:47:47.606Z,26.90
2018-06-27T05:50:15.555Z,6.12
2018-06-27T05:52:43.598Z,3.30
2018-06-27T05:55:11.760Z,4.90
2018-06-27T05:57:40.755Z,4.62
2018-06-27T06:00:09.908Z,4.80
2018-06-27T06:02:37.833Z,6.10
2018-06-27T06:05:08.213Z,5.78
2018-06-27T06:07:36.802Z,4.80
2018-06-27T06:10:07.647Z,6.85
2018-06-27T06:12:35.687Z,5.60
2018-06-27T06:15:04.967Z,4.03
2018-06-27T06:17:33.150Z,5.55
2018-06-27T06:20:01.226Z,5.83
2018-06-27T06:22:29.670Z,6.42
2018-06-27T06:24:57.749Z,3.95
2018-06-27T06:27:25.804Z,6.50
2018-06-27T06:29:53.754Z,7.75
2018-06-27T06:32:21.709Z,5.80
2018-06-27T06:34:49.735Z,6.72
2018-06-27T06:37:17.727Z,7.65
2018-06-27T06:39:46.181Z,8.45
2018-06-27T06:42:14.349Z,6.37
2018-06-27T06:44:42.971Z,9.13
2018-06-27T06:47:10.996Z,10.55
2018-06-27T06:49:39.493Z,9.60
2018-06-27T06:52:07.572Z,11.08
2018-06-27T06:54:35.514Z,8.38
2018-06-27T06:57:03.599Z,6.62
2018-06-27T06:59:31.551Z,7.40
2018-06-27T07:01:59.524Z,9.23
2018-06-27T07:04:27.493Z,9.20
2018-06-27T07:06:55.623Z,7.42
2018-06-27T07:09:23.792Z,10.95
2018-06-27T07:11:51.765Z,8.05
2018-06-27T07:14:19.869Z,9.60
2018-06-27T07:16:47.995Z,7.33
2018-06-27T07:19:15.995Z,9.63
2018-06-27T07:21:44.460Z,8.45
2018-06-27T07:24:12.820Z,7.80
2018-06-27T07:26:41.853Z,8.83
2018-06-27T07:29:09.965Z,10.23
2018-06-27T07:31:38.154Z,8.45
2018-06-27T07:34:06.195Z,7.80
2018-06-27T07:36:34.522Z,9.90
2018-06-27T07:39:03.050Z,8.88
2018-06-27T07:41:32.446Z,9.95
2018-06-27T07:44:00.445Z,10.35
2018-06-27T07:46:29.947Z,10.45
2018-06-27T07:48:58.061Z,11.22
2018-06-27T07:51:26.111Z,9.38
2018-06-27T07:53:54.361Z,9.38
2018-06-27T07:56:22.479Z,10.58
2018-06-27T07:58:50.692Z,15.10
2018-06-27T08:01:18.752Z,10.48
2018-06-27T08:03:46.970Z,9.95
2018-06-27T08:06:14.987Z,9.55
2018-06-27T08:08:43.675Z,9.13
2018-06-27T08:11:11.861Z,12.85
2018-06-27T08:13:39.904Z,8.88
2018-06-27T08:16:07.951Z,11.75
2018-06-27T08:18:43.506Z,9.90
2018-06-27T08:21:11.638Z,9.60
2018-06-27T08:23:39.868Z,11.45
2018-06-27T08:28:59.636Z,11.97
2018-06-27T08:31:27.762Z,17.27
2018-06-27T08:33:55.832Z,17.82
2018-06-27T08:36:23.873Z,12.45
2018-06-27T08:38:51.876Z,11.12
2018-06-27T08:41:20.150Z,13.30
2018-06-27T08:43:48.322Z,9.70
2018-06-27T08:46:16.438Z,11.00
2018-06-27T08:48:44.477Z,11.25
2018-06-27T08:51:12.567Z,12.63
2018-06-27T08:53:40.722Z,13.50
2018-06-27T08:56:10.762Z,11.35
2018-06-27T08:58:38.763Z,10.00
2018-06-27T09:01:06.847Z,10.45
2018-06-27T09:03:34.776Z,11.48
2018-06-27T09:06:02.787Z,10.32
2018-06-27T09:08:30.867Z,10.43
2018-06-27T09:10:59.052Z,10.58
2018-06-27T09:13:27.034Z,10.00
2018-06-27T09:15:55.091Z,13.50
2018-06-27T09:18:23.074Z,11.55
2018-06-27T09:20:51.199Z,10.05
2018-06-27T09:23:19.252Z,11.97
2018-06-27T09:25:47.594Z,11.75
2018-06-27T09:28:15.652Z,9.53
2018-06-27T09:30:43.638Z,20.88
2018-06-27T09:33:11.616Z,8.60
2018-06-27T09:35:39.818Z,11.95
2018-06-27T09:38:08.257Z,10.45
2018-06-27T09:40:36.220Z,10.88
2018-06-27T09:43:04.260Z,11.83
2018-06-27T09:45:32.249Z,10.38
2018-06-27T09:48:00.417Z,9.88
2018-06-27T09:50:28.783Z,10.43
2018-06-27T09:52:56.942Z,10.88
2018-06-27T09:55:24.962Z,10.95
2018-06-27T09:57:53.139Z,13.43
2018-06-27T10:00:26.761Z,10.00
2018-06-27T10:02:54.879Z,12.95
2018-06-27T10:05:22.810Z,10.38
2018-06-27T10:07:51.657Z,8.90
2018-06-27T10:10:19.830Z,11.48
2018-06-27T10:12:47.827Z,9.65
2018-06-27T10:15:16.109Z,11.63
2018-06-27T10:17:44.080Z,11.05
2018-06-27T10:20:12.375Z,9.70
2018-06-27T10:22:40.557Z,11.38
2018-06-27T10:25:08.708Z,10.40
2018-06-27T10:27:36.860Z,8.78
2018-06-27T10:30:05.528Z,9.28
2018-06-27T10:32:33.513Z,8.78
2018-06-27T10:35:01.533Z,8.60
2018-06-27T10:37:29.496Z,7.37
2018-06-27T10:39:57.440Z,7.83
2018-06-27T10:42:25.645Z,5.22
2018-06-27T10:44:53.752Z,7.67
2018-06-27T10:47:21.860Z,5.53
2018-06-27T10:49:50.058Z,6.30
2018-06-27T10:52:18.225Z,4.75
2018-06-27T10:54:54.164Z,5.12
2018-06-27T10:57:23.339Z,5.20
2018-06-27T10:59:52.559Z,6.47
2018-06-27T11:02:21.257Z,6.30
2018-06-27T11:04:49.219Z,8.00
2018-06-27T11:07:17.190Z,7.83
2018-06-27T11:09:45.253Z,6.60
2018-06-27T11:12:13.207Z,6.67
2018-06-27T11:14:41.257Z,8.05
2018-06-27T11:17:09.352Z,8.65
2018-06-27T11:19:37.543Z,9.65
2018-06-27T11:22:05.621Z,9.13
2018-06-27T11:24:33.683Z,7.00
2018-06-27T11:27:01.752Z,7.67
2018-06-27T11:29:29.902Z,6.80
2018-06-27T11:31:58.335Z,5.97
2018-06-27T11:34:26.412Z,6.72
2018-06-27T11:36:54.368Z,22.05
2018-06-27T11:39:23.008Z,19.10
2018-06-27T11:41:51.831Z,8.45
2018-06-27T11:44:19.961Z,7.33
2018-06-27T11:46:48.818Z,6.55
2018-06-27T11:49:16.817Z,7.00
2018-06-27T11:51:45.403Z,7.47
2018-06-27T11:54:13.974Z,7.72
2018-06-27T11:56:42.069Z,6.25
2018-06-27T11:59:10.026Z,6.97
2018-06-27T12:01:38.007Z,7.67
2018-06-27T12:04:06.034Z,7.05
2018-06-27T12:06:34.211Z,6.53
2018-06-27T12:09:02.605Z,6.12
2018-06-27T12:11:30.612Z,7.62
2018-06-27T12:13:58.641Z,10.15
2018-06-27T12:16:27.216Z,7.75
2018-06-27T12:18:55.293Z,9.75
2018-06-27T12:21:23.567Z,9.95
2018-06-27T12:23:51.566Z,10.50
2018-06-27T12:26:19.778Z,9.73
2018-06-27T12:28:47.698Z,11.60
2018-06-27T12:31:15.974Z,10.68
2018-06-27T12:33:43.943Z,11.35
2018-06-27T12:36:13.332Z,12.70
2018-06-27T12:38:41.368Z,16.70
2018-06-27T12:41:09.416Z,12.40
2018-06-27T12:43:37.424Z,10.78
2018-06-27T12:46:05.508Z,13.08
2018-06-27T12:48:33.561Z,12.95
2018-06-27T12:51:01.583Z,11.53
2018-06-27T12:53:29.498Z,11.65
2018-06-27T12:55:57.853Z,11.40
2018-06-27T12:58:26.012Z,11.65
2018-06-27T13:00:54.096Z,10.50
2018-06-27T13:03:22.143Z,10.75
2018-06-27T13:05:50.245Z,11.30
2018-06-27T13:08:18.324Z,14.07
2018-06-27T13:10:46.766Z,12.37
2018-06-27T13:13:14.833Z,11.03
2018-06-27T13:15:42.944Z,12.40
2018-06-27T13:18:10.886Z,11.83
2018-06-27T13:20:38.921Z,11.45
2018-06-27T13:23:07.055Z,9.55
2018-06-27T13:25:35.154Z,10.75
2018-06-27T13:28:03.152Z,11.33
2018-06-27T13:30:31.074Z,8.70
2018-06-27T13:32:59.076Z,9.50
2018-06-27T13:35:27.212Z,11.43
2018-06-27T13:37:55.434Z,10.43
2018-06-27T13:40:23.426Z,11.48
2018-06-27T13:42:51.504Z,10.18
2018-06-27T13:45:19.537Z,8.15
2018-06-27T13:47:47.503Z,9.55
2018-06-27T13:50:15.521Z,10.72
2018-06-27T13:52:43.784Z,9.40
2018-06-27T13:55:11.928Z,9.80
2018-06-27T13:57:39.848Z,8.23
2018-06-27T14:00:08.175Z,8.23
2018-06-27T14:02:36.273Z,8.23
2018-06-27T14:05:04.899Z,11.03
2018-06-27T14:07:33.558Z,10.08
2018-06-27T14:10:02.060Z,8.25
2018-06-27T14:12:30.121Z,9.78
2018-06-27T14:14:59.278Z,11.10
2018-06-27T14:17:27.777Z,10.65
2018-06-27T14:19:56.080Z,10.15
2018-06-27T14:22:24.264Z,14.10
2018-06-27T14:24:52.940Z,10.85
2018-06-27T14:27:21.524Z,12.75
2018-06-27T14:29:49.637Z,13.05
2018-06-27T14:32:17.632Z,12.13
2018-06-27T14:34:45.762Z,11.80
2018-06-27T14:37:13.772Z,15.60
2018-06-27T14:39:41.801Z,12.50
2018-06-27T14:42:09.866Z,10.88
2018-06-27T14:44:37.870Z,13.00
2018-06-27T14:47:06.046Z,14.50
2018-06-27T14:49:34.528Z,13.38
2018-06-27T14:52:02.656Z,13.00
2018-06-27T14:54:30.617Z,14.53
2018-06-27T14:56:58.628Z,17.40
2018-06-27T14:59:26.698Z,21.65
2018-06-27T15:01:54.641Z,23.90
2018-06-27T15:04:22.721Z,29.82
2018-06-27T15:06:51.038Z,24.80
2018-06-27T15:09:19.022Z,24.75
2018-06-27T15:11:47.116Z,18.20
2018-06-27T15:14:15.136Z,19.67
2018-06-27T15:16:43.131Z,20.52
2018-06-27T15:19:11.147Z,16.20
2018-06-27T15:21:39.233Z,15.43
2018-06-27T15:24:07.322Z,15.48
2018-06-27T15:26:35.382Z,19.12
2018-06-27T15:29:03.379Z,20.82
2018-06-27T15:31:31.452Z,13.78
2018-06-27T15:33:59.486Z,23.15
2018-06-27T15:36:27.701Z,15.18
2018-06-27T15:38:55.704Z,14.23
2018-06-27T15:41:24.424Z,17.45
2018-06-27T15:43:52.766Z,14.25
2018-06-27T15:46:20.826Z,16.52
2018-06-27T15:48:48.928Z,10.95
2018-06-27T15:51:17.007Z,14.35
2018-06-27T15:53:45.110Z,17.32
2018-06-27T15:56:13.125Z,15.20
2018-06-27T15:58:41.480Z,13.03
2018-06-27T16:01:09.939Z,14.65
2018-06-27T16:03:38.042Z,12.23
2018-06-27T16:06:07.065Z,11.30
2018-06-27T16:08:35.012Z,10.13
2018-06-27T16:11:03.010Z,11.68
2018-06-27T16:13:31.045Z,12.55
2018-06-27T16:15:59.308Z,16.95
2018-06-27T16:18:27.560Z,16.10
2018-06-27T16:20:55.795Z,9.88
2018-06-27T16:23:23.704Z,9.80
2018-06-27T16:25:51.721Z,7.72
2018-06-27T16:28:19.727Z,8.25
2018-06-27T16:30:47.894Z,8.85
2018-06-27T16:33:15.989Z,16.20
2018-06-27T16:35:44.008Z,9.98
2018-06-27T16:38:12.219Z,10.43
2018-06-27T16:40:40.871Z,11.65
2018-06-27T16:43:08.941Z,13.28
2018-06-27T16:45:36.975Z,12.70
2018-06-27T16:48:05.970Z,14.30
2018-06-27T16:50:34.015Z,13.53
2018-06-27T16:53:01.917Z,14.28
2018-06-27T16:55:29.942Z,10.98
2018-06-27T16:57:57.899Z,12.80
2018-06-27T17:00:25.951Z,10.78
2018-06-27T17:02:54.048Z,12.90
2018-06-27T17:05:22.046Z,10.65
2018-06-27T17:07:50.884Z,12.58
2018-06-27T17:10:18.836Z,9.95
2018-06-27T17:12:47.274Z,11.03
2018-06-27T17:15:16.666Z,12.07
2018-06-27T17:17:44.828Z,10.50
2018-06-27T17:20:12.976Z,10.75
2018-06-27T17:22:40.922Z,10.00
2018-06-27T17:25:08.925Z,10.08
2018-06-27T17:27:36.990Z,8.25
2018-06-27T17:30:05.278Z,8.40
2018-06-27T17:32:33.745Z,9.33
2018-06-27T17:35:01.823Z,8.18
2018-06-27T17:37:29.732Z,8.93
2018-06-27T17:39:57.683Z,9.33
2018-06-27T17:42:25.767Z,9.63
2018-06-27T17:44:53.826Z,10.35
2018-06-27T17:47:21.775Z,9.68
2018-06-27T17:49:49.848Z,10.20
2018-06-27T17:52:17.778Z,8.55
2018-06-27T17:54:45.675Z,10.68
2018-06-27T17:57:13.748Z,9.70
2018-06-27T17:59:42.044Z,13.13
2018-06-27T18:02:10.095Z,10.88
2018-06-27T18:04:38.430Z,12.25
2018-06-27T18:07:06.461Z,11.18
2018-06-27T18:09:34.729Z,10.53
2018-06-27T18:12:02.747Z,11.85
2018-06-27T18:14:30.771Z,12.82
2018-06-27T18:16:58.861Z,14.15
2018-06-27T18:19:26.890Z,15.50
2018-06-27T18:21:54.935Z,13.05
2018-06-27T18:24:23.002Z,12.30
2018-06-27T18:26:51.010Z,13.03
2018-06-27T18:29:19.319Z,15.63
2018-06-27T18:31:47.392Z,13.28
2018-06-27T18:34:15.388Z,12.35
2018-06-27T18:36:45.554Z,11.43
2018-06-27T18:39:13.527Z,11.70
2018-06-27T18:41:44.243Z,14.18
2018-06-27T18:44:12.554Z,11.10
2018-06-27T18:46:40.568Z,16.48
2018-06-27T18:49:08.592Z,15.00
2018-06-27T18:51:36.672Z,13.90
2018-06-27T18:54:05.648Z,13.50
2018-06-27T18:56:33.708Z,13.50
2018-06-27T18:59:01.741Z,16.23
2018-06-27T19:01:29.862Z,20.32
2018-06-27T19:03:57.935Z,19.30
2018-06-27T19:06:25.993Z,16.00
2018-06-27T19:08:54.040Z,16.97
2018-06-27T19:11:22.104Z,15.00
2018-06-27T19:13:50.317Z,13.13
2018-06-27T19:16:18.306Z,13.62
2018-06-27T19:18:46.373Z,12.07
2018-06-27T19:21:14.397Z,12.20
2018-06-27T19:23:43.056Z,13.90
2018-06-27T19:26:11.106Z,13.83
2018-06-27T19:28:39.302Z,14.13
2018-06-27T19:31:07.219Z,12.93
2018-06-27T19:33:35.212Z,13.60
2018-06-27T19:36:03.659Z,13.90
2018-06-27T19:38:31.986Z,14.90
2018-06-27T19:41:00.107Z,16.05
2018-06-27T19:43:28.482Z,13.75
2018-06-27T19:45:56.412Z,14.75
2018-06-27T19:48:24.416Z,15.50
2018-06-27T19:50:52.476Z,14.43
2018-06-27T19:53:20.619Z,14.98
2018-06-27T19:55:48.666Z,16.05
2018-06-27T19:58:16.803Z,19.50
2018-06-27T20:00:45.865Z,19.82
2018-06-27T20:03:13.880Z,18.73
2018-06-27T20:05:43.475Z,18.17
2018-06-27T20:08:11.327Z,16.05
2018-06-27T20:10:39.503Z,14.45
2018-06-27T20:13:07.476Z,16.87
2018-06-27T20:15:35.552Z,15.25
2018-06-27T20:18:03.644Z,16.07
2018-06-27T20:20:31.739Z,14.38
2018-06-27T20:22:59.647Z,15.43
2018-06-27T20:25:27.699Z,15.45
2018-06-27T20:27:56.061Z,15.35
2018-06-27T20:30:23.901Z,15.10
2018-06-27T20:32:51.852Z,15.55
2018-06-27T20:35:19.778Z,14.25
2018-06-27T20:37:47.760Z,14.85
2018-06-27T20:40:15.744Z,13.35
2018-06-27T20:42:43.810Z,14.68
2018-06-27T20:45:11.795Z,16.07
2018-06-27T20:47:39.941Z,14.98
2018-06-27T20:50:07.877Z,16.67
2018-06-27T20:52:36.025Z,15.28
2018-06-27T20:55:03.905Z,18.85
2018-06-27T20:57:31.864Z,16.82
2018-06-27T20:59:59.786Z,15.85
2018-06-27T21:02:27.785Z,17.62
2018-06-27T21:04:55.735Z,15.93
2018-06-27T21:07:23.753Z,16.55
2018-06-27T21:09:51.702Z,18.10
2018-06-27T21:12:19.637Z,14.87
2018-06-27T21:14:47.622Z,17.25
2018-06-27T21:17:15.536Z,15.43
2018-06-27T21:19:43.528Z,15.78
2018-06-27T21:22:11.550Z,14.25
2018-06-27T21:24:39.454Z,17.23
2018-06-27T21:27:07.508Z,14.45
2018-06-27T21:29:35.445Z,15.65
2018-06-27T21:32:03.438Z,20.62
2018-06-27T21:34:31.511Z,18.17
2018-06-27T21:36:59.423Z,16.57
2018-06-27T21:39:27.391Z,13.80
2018-06-27T21:41:55.331Z,14.23
2018-06-27T21:44:23.289Z,14.07
2018-06-27T21:46:51.270Z,16.55
2018-06-27T21:49:19.267Z,14.58
2018-06-27T21:51:47.263Z,18.23
2018-06-27T21:54:15.222Z,17.37
2018-06-27T21:56:43.153Z,15.98
2018-06-27T21:59:11.031Z,15.00
2018-06-27T22:01:39.688Z,17.70
2018-06-27T22:04:07.844Z,16.52
2018-06-27T22:06:35.886Z,16.50
2018-06-27T22:09:06.045Z,19.80
2018-06-27T22:11:34.152Z,15.23
2018-06-27T22:14:02.121Z,20.00
2018-06-27T22:16:30.215Z,19.80
2018-06-27T22:18:58.294Z,16.73
2018-06-27T22:21:26.382Z,18.55
2018-06-27T22:23:54.735Z,16.32
2018-06-27T22:26:22.796Z,15.45
2018-06-27T22:28:50.945Z,15.88
2018-06-27T22:31:18.985Z,18.62
2018-06-27T22:33:47.127Z,16.85
2018-06-27T22:36:15.130Z,16.60
2018-06-27T22:38:43.245Z,17.27
2018-06-27T22:41:11.331Z,17.50
2018-06-27T22:43:39.456Z,17.52
2018-06-27T22:46:07.731Z,17.65
2018-06-27T22:48:35.766Z,18.92
2018-06-27T22:51:04.571Z,17.12
2018-06-27T22:53:32.666Z,16.40
2018-06-27T22:56:00.700Z,22.02
2018-06-27T22:58:28.671Z,17.32
2018-06-27T23:00:56.746Z,17.42
2018-06-27T23:03:24.728Z,19.48
2018-06-27T23:05:52.775Z,17.15
2018-06-27T23:08:20.781Z,18.27
2018-06-27T23:10:48.726Z,16.80
2018-06-27T23:13:16.701Z,17.65
2018-06-27T23:15:44.682Z,19.23
2018-06-27T23:18:12.695Z,16.20
2018-06-27T23:20:40.943Z,14.80
2018-06-27T23:23:08.986Z,17.75
2018-06-27T23:25:36.998Z,18.50
2018-06-27T23:28:05.013Z,20.43
2018-06-27T23:30:33.093Z,20.57
2018-06-27T23:33:01.185Z,24.23
2018-06-27T23:35:29.223Z,23.92
2018-06-27T23:37:57.235Z,22.58
2018-06-27T23:40:25.191Z,20.37
2018-06-27T23:42:53.435Z,18.85
2018-06-27T23:45:21.536Z,18.40
2018-06-27T23:47:49.659Z,18.73
2018-06-27T23:50:17.815Z,17.45
2018-06-27T23:52:45.780Z,17.45
2018-06-27T23:55:13.866Z,22.35
2018-06-27T23:57:41.930Z,18.77
